CYLJ

Meadow Lake Airport

Meadow Lake, Saskatchewan, Canada
METAR CYLJ 241400Z 00000KT 15SM SCT025 BKN098 18/15 A2997 RMK SC3AC2 SLP151 DENSITY ALT 2300FT
Observed Flight Rules
Jun-24 @ 14:00 UTC (59 minutes ago) Visual Flight Rules
Visibility Clouds
15 miles
  • Scattered at 2,500' AGL
  • Broken at 9,800' AGL
Temperatures Readings
Current 18°C / 64°F
Dewpoint 15°C / 59°F
Humidity 83%
Altimeter 29.97" Hg
Pressure 1015.1 hPa
Elevation 480
METAR CYLJ 241400Z 00000KT 15SM SCT025 BKN098 18/15 A2997 RMK SC3AC2 SLP151 DENSITY ALT 2300FT
Observed Flight Rules
Jun-24 @ 14:00 UTC
(59 minutes ago)
VFR
Clouds
  • Scattered at 2,500' AGL
  • Broken at 9,800' AGL
Temperature Dewpoint
18°C / 64°F 15°C / 59°F
Humidity Altimeter Pressure
83% 29.97" Hg 1015.1 hPa